European Seaway — MPDG3 — position and weather

sailwx.info

Track history (hours):
 
Tides and Currents Weather Stations Pressure Air Temp Water Temp Dewpoint Dewpoint Depression Visibility Wind Speed Wind Dir Waves Ship Positions

European Seaway

Operator: P & O Ferries

Last reported at 2017-Aug-23 13:31 UTC. Time now 2017-Aug-23 13:35 UTC.
Position N 50°58' E 001°47'.

Length 179 m; draft 6.1 m.

Type: Passenger vessel. MMSI: 232001040.

Date/timePositionNaut miles runAvg speedWind from/ knotsBaromVisibWave heightAir tempDewpointWater temp
2017-Aug-23 13:31N 50°58' E 001°47'917.4
2017-Aug-23 13:00N 51°00' E 001°34'815.3
2017-Aug-23 12:31N 51°05' E 001°24'3 5.8
2017-Aug-23 11:55N 51°07' E 001°20'0 0.0
2017-Aug-23 11:16N 51°07' E 001°20'0 0.0
2017-Aug-23 10:56N 51°07' E 001°20'4 9.1
2017-Aug-23 10:30N 51°07' E 001°26'917.7
2017-Aug-23 10:00N 51°02' E 001°38'816.3
2017-Aug-23 09:30N 50°58' E 001°50'1 2.5
2017-Aug-23 09:00N 50°58' E 001°52'0 0.0
2017-Aug-23 08:30N 50°58' E 001°52'510.8
2017-Aug-23 08:00N 50°58' E 001°43'917.1
2017-Aug-23 07:31N 51°02' E 001°31'917.1
2017-Aug-23 07:01N 51°07' E 001°20'0 0.2
2017-Aug-23 05:41N 51°07' E 001°20'0 1.5
2017-Aug-23 05:29N 51°07' E 001°21'612.5
2017-Aug-23 05:00N 51°05' E 001°29'917.2
2017-Aug-23 04:31N 51°00' E 001°41'712.8
2017-Aug-23 03:57N 50°58' E 001°52'0 0.0
2017-Aug-23 03:29N 50°58' E 001°52'0 0.0
2017-Aug-23 03:00N 50°58' E 001°52'0 0.0
2017-Aug-23 02:29N 50°58' E 001°52'0 0.0
2017-Aug-23 01:59N 50°58' E 001°52'0 0.0
2017-Aug-23 01:29N 50°58' E 001°52'0 0.0
2017-Aug-23 01:00N 50°58' E 001°52'0 0.0
2017-Aug-23 00:30N 50°58' E 001°52'0 0.5
2017-Aug-23 00:00N 50°58' E 001°51'714.7
2017-Aug-22 23:30N 50°59' E 001°40'815.1
2017-Aug-22 23:00N 51°03' E 001°29'814.7
2017-Aug-22 22:30N 51°07' E 001°20'0 0.0
2017-Aug-22 21:50N 51°07' E 001°20'0 0.0
2017-Aug-22 21:30N 51°07' E 001°20'5 9.3
2017-Aug-22 21:00N 51°06' E 001°27'918.0
2017-Aug-22 20:30N 51°01' E 001°39'816.5
2017-Aug-22 20:00N 50°58' E 001°51'0 0.9
2017-Aug-22 19:30N 50°58' E 001°52'0 0.0
2017-Aug-22 19:00N 50°58' E 001°52'2 3.6
2017-Aug-22 18:30N 50°58' E 001°49'815.6
2017-Aug-22 18:00N 50°59' E 001°36'917.3
2017-Aug-22 17:31N 51°03' E 001°25'510.1
2017-Aug-22 17:00N 51°07' E 001°20'0 0.0
2017-Aug-22 16:30N 51°07' E 001°20'2 4.6
2017-Aug-22 16:01N 51°07' E 001°24'816.3
2017-Aug-22 15:31N 51°04' E 001°36'816.3
2017-Aug-22 15:01N 50°58' E 001°45'4 7.8
2017-Aug-22 14:30N 50°58' E 001°51'0 0.0
2017-Aug-22 14:00N 50°58' E 001°51'0 0.0
2017-Aug-22 13:30N 50°58' E 001°51'510.1
2017-Aug-22 13:00N 50°58' E 001°43'919.0
2017-Aug-22 12:31N 51°03' E 001°30'813.8
2017-Aug-22 11:57N 51°07' E 001°20'0 0.0
2017-Aug-22 11:29N 51°07' E 001°20'0 0.0
2017-Aug-22 10:53N 51°07' E 001°20'410.5
2017-Aug-22 10:30N 51°07' E 001°26'918.2
2017-Aug-22 10:00N 51°01' E 001°38'816.3
2017-Aug-22 09:30N 50°58' E 001°50'1 2.1
2017-Aug-22 09:00N 50°58' E 001°52'0 0.0
2017-Aug-22 08:30N 50°58' E 001°52'3 6.5
2017-Aug-22 08:00N 50°58' E 001°47'815.1
2017-Aug-22 07:31N 51°00' E 001°35'917.6
2017-Aug-22 07:01N 51°05' E 001°24'3 5.6
2017-Aug-22 06:28N 51°07' E 001°20'0 0.0
2017-Aug-22 06:00N 51°07' E 001°20'1 2.7
2017-Aug-22 05:31N 51°07' E 001°22'816.2
2017-Aug-22 05:00N 51°03' E 001°33'918.5
2017-Aug-22 04:30N 50°58' E 001°46'4 7.3
2017-Aug-22 04:00N 50°58' E 001°51'0 0.0
2017-Aug-22 03:30N 50°58' E 001°51'2 4.4
2017-Aug-22 03:00N 50°58' E 001°48'714.4
2017-Aug-22 02:30N 50°59' E 001°37'918.2
2017-Aug-22 02:00N 51°05' E 001°26'4 8.4
2017-Aug-22 01:31N 51°07' E 001°20'0 0.0
2017-Aug-22 01:00N 51°07' E 001°20'1 2.5
2017-Aug-22 00:30N 51°07' E 001°22'713.8
2017-Aug-22 00:01N 51°08' E 001°33'5 9.8
2017-Aug-21 23:30N 51°04' E 001°37'612.7
2017-Aug-21 23:01N 50°59' E 001°43'510.7
2017-Aug-21 22:31N 50°58' E 001°51'0 0.1
2017-Aug-21 22:01N 50°58' E 001°51'0 0.0
2017-Aug-21 21:30N 50°58' E 001°51'1 1.4
2017-Aug-21 21:01N 50°58' E 001°50'917.1
2017-Aug-21 20:30N 50°59' E 001°37'612.9
2017-Aug-21 20:00N 51°03' E 001°30'714.0
2017-Aug-21 19:30N 51°07' E 001°20'1 1.5
2017-Aug-21 19:00N 51°07' E 001°20'0 0.0
2017-Aug-21 18:30N 51°07' E 001°20'0 0.0
2017-Aug-21 18:00N 51°07' E 001°20'0 0.0
2017-Aug-21 17:30N 51°07' E 001°20'0 0.0
2017-Aug-21 17:00N 51°07' E 001°20'0 0.0
2017-Aug-21 16:30N 51°07' E 001°20'0 0.7
2017-Aug-21 16:00N 51°07' E 001°21'815.9
2017-Aug-21 15:31N 51°04' E 001°32'917.8
2017-Aug-21 15:00N 50°59' E 001°43'5 9.7
2017-Aug-21 14:30N 50°58' E 001°51'0 0.0
2017-Aug-21 14:00N 50°58' E 001°51'0 0.0
2017-Aug-21 13:31N 50°58' E 001°51'612.7
2017-Aug-21 13:01N 50°58' E 001°41'918.7
2017-Aug-21 12:30N 51°02' E 001°28'7 4.7
2017-Aug-21 11:03N 51°07' E 001°20'0 0.5
2017-Aug-21 11:00N 51°07' E 001°20'4 8.0
2017-Aug-21 10:31N 51°06' E 001°26'918.4
2017-Aug-21 10:01N 51°01' E 001°39'815.5
2017-Aug-21 09:30N 50°58' E 001°50'1 1.5
2017-Aug-21 09:00N 50°58' E 001°51'0 0.0
2017-Aug-21 08:30N 50°58' E 001°51'0 0.0
2017-Aug-21 08:00N 50°58' E 001°51'0 0.0
2017-Aug-21 07:30N 50°58' E 001°51'0 0.0
2017-Aug-21 07:00N 50°58' E 001°51'0 0.0
2017-Aug-21 06:30N 50°58' E 001°51'0 0.0
2017-Aug-21 06:00N 50°58' E 001°51'0 0.0
2017-Aug-21 05:30N 50°58' E 001°51'0 0.0
2017-Aug-21 04:58N 50°58' E 001°51'0 0.0
2017-Aug-21 04:28N 50°58' E 001°51'0 0.0
2017-Aug-21 03:55N 50°58' E 001°51'0 0.0
2017-Aug-21 03:25N 50°58' E 001°51'0 0.0
2017-Aug-21 02:58N 50°58' E 001°51'0 0.0
2017-Aug-21 02:28N 50°58' E 001°51'0 0.0
2017-Aug-21 02:01N 50°58' E 001°51'0 0.0
2017-Aug-21 01:31N 50°58' E 001°51'0 0.0
2017-Aug-21 01:01N 50°58' E 001°51'0 0.0
2017-Aug-21 00:31N 50°58' E 001°51'0 0.0
2017-Aug-21 00:00N 50°58' E 001°51'0 0.0
2017-Aug-20 23:30N 50°58' E 001°51'0 0.0
2017-Aug-20 23:00N 50°58' E 001°51'0 0.0
2017-Aug-20 22:30N 50°58' E 001°51'0 0.0
2017-Aug-20 22:00N 50°58' E 001°51'0 0.0
2017-Aug-20 21:30N 50°58' E 001°51'0 0.0
2017-Aug-20 21:00N 50°58' E 001°51'0 0.0
2017-Aug-20 20:30N 50°58' E 001°51'0 0.0
2017-Aug-20 20:01N 50°58' E 001°51'0 0.0
2017-Aug-20 19:30N 50°58' E 001°51'0 0.0
2017-Aug-20 19:00N 50°58' E 001°51'2 3.7
2017-Aug-20 18:30N 50°58' E 001°48'816.1
2017-Aug-20 18:00N 50°60' E 001°35'917.5
2017-Aug-20 17:31N 51°05' E 001°24'4 7.4
2017-Aug-20 17:00N 51°07' E 001°20'0 0.0
2017-Aug-20 16:29N 51°07' E 001°20'0 0.3
2017-Aug-20 16:00N 51°07' E 001°20'815.4
2017-Aug-20 15:30N 51°04' E 001°31'917.8
2017-Aug-20 15:01N 50°59' E 001°43'611.3
2017-Aug-20 14:31N 50°58' E 001°52'0 0.0
2017-Aug-20 14:00N 50°58' E 001°52'1 1.1
2017-Aug-20 13:30N 50°58' E 001°51'816.7
2017-Aug-20 13:00N 50°60' E 001°38'918.6
2017-Aug-20 12:31N 51°05' E 001°26'4 4.4
2017-Aug-20 11:34N 51°07' E 001°20'0 0.0
2017-Aug-20 11:16N 51°07' E 001°20'0 0.1
2017-Aug-20 11:00N 51°07' E 001°20'510.9
2017-Aug-20 10:30N 51°05' E 001°28'917.2
2017-Aug-20 10:00N 51°00' E 001°40'714.6
2017-Aug-20 09:31N 50°58' E 001°51'1 1.4
2017-Aug-20 09:00N 50°58' E 001°52'0 0.3
2017-Aug-20 08:31N 50°58' E 001°51'815.4
2017-Aug-20 08:01N 50°59' E 001°39'918.3
2017-Aug-20 07:31N 51°04' E 001°27'610.9
2017-Aug-20 06:58N 51°07' E 001°20'0 0.0
2017-Aug-20 06:15N 51°07' E 001°20'0 0.0
2017-Aug-20 05:58N 51°07' E 001°20'2 4.6
2017-Aug-20 05:31N 51°07' E 001°23'917.5
2017-Aug-20 05:00N 51°04' E 001°36'917.3
2017-Aug-20 04:30N 50°58' E 001°47'3 5.3
2017-Aug-20 04:00N 50°58' E 001°51'0 0.1
2017-Aug-20 03:30N 50°58' E 001°51'0 0.9
2017-Aug-20 02:58N 50°58' E 001°52'0 0.0
2017-Aug-20 02:22N 50°58' E 001°52'0 0.0
2017-Aug-20 01:58N 50°58' E 001°52'0 0.0
2017-Aug-20 01:25N 50°58' E 001°52'0 0.0
2017-Aug-20 01:00N 50°58' E 001°52'0 0.0
2017-Aug-20 00:30N 50°58' E 001°52'0 0.0
2017-Aug-20 00:00N 50°58' E 001°52'0 0.0
2017-Aug-19 23:30N 50°58' E 001°52'0 0.0
2017-Aug-19 23:00N 50°58' E 001°52'0 0.0
2017-Aug-19 22:30N 50°58' E 001°52'0 0.0
2017-Aug-19 22:00N 50°58' E 001°52'0 0.0
2017-Aug-19 21:30N 50°58' E 001°52'0 0.0
2017-Aug-19 21:00N 50°58' E 001°52'0 0.0
2017-Aug-19 20:30N 50°58' E 001°52'0 0.0
2017-Aug-19 20:00N 50°58' E 001°52'0 0.3
2017-Aug-19 19:30N 50°58' E 001°52'0 0.0
2017-Aug-19 19:00N 50°58' E 001°52'2 3.7
2017-Aug-19 18:31N 50°58' E 001°49'816.6
2017-Aug-19 18:01N 50°60' E 001°36'917.7
2017-Aug-19 17:30N 51°05' E 001°25'4 7.0
2017-Aug-19 17:00N 51°07' E 001°20'0 0.0
2017-Aug-19 16:30N 51°07' E 001°20'3 5.8
2017-Aug-19 16:01N 51°07' E 001°24'917.5
2017-Aug-19 15:30N 51°02' E 001°36'917.3
2017-Aug-19 15:01N 50°58' E 001°48'2 1.6
2017-Aug-19 14:00N 50°58' E 001°51'0 0.7
2017-Aug-19 13:30N 50°58' E 001°51'816.0
2017-Aug-19 13:00N 50°60' E 001°38'918.2
2017-Aug-19 12:30N 51°05' E 001°26'5 9.0
2017-Aug-19 12:00N 51°07' E 001°20'0 0.0
2017-Aug-19 11:25N 51°07' E 001°20'1 2.1
2017-Aug-19 11:00N 51°07' E 001°21'816.5
2017-Aug-19 10:30N 51°03' E 001°33'816.7
2017-Aug-19 10:01N 50°59' E 001°44'5 9.9
2017-Aug-19 09:30N 50°58' E 001°52'0 0.0
2017-Aug-19 09:00N 50°58' E 001°52'1 2.6
2017-Aug-19 08:31N 50°58' E 001°50'918.3
2017-Aug-19 08:01N 51°00' E 001°35'918.0
2017-Aug-19 07:31N 51°06' E 001°24'3 5.6
2017-Aug-19 06:59N 51°07' E 001°20'0 0.0
2017-Aug-19 06:26N 51°07' E 001°20'0 0.2
2017-Aug-19 06:00N 51°07' E 001°20'510.3
2017-Aug-19 05:30N 51°05' E 001°28'917.2
2017-Aug-19 05:00N 51°00' E 001°39'815.5
2017-Aug-19 04:31N 50°58' E 001°51'1 1.3
2017-Aug-19 04:01N 50°58' E 001°52'0 0.0
2017-Aug-19 03:30N 50°58' E 001°52'0 0.0
2017-Aug-19 03:00N 50°58' E 001°52'0 0.0
2017-Aug-19 02:30N 50°58' E 001°52'0 0.0
2017-Aug-19 02:01N 50°58' E 001°52'0 0.0
2017-Aug-19 01:31N 50°58' E 001°52'0 0.0
2017-Aug-19 01:01N 50°58' E 001°52'0 0.0
2017-Aug-19 00:30N 50°58' E 001°52'3 6.3
2017-Aug-19 00:01N 50°58' E 001°47'815.7
2017-Aug-18 23:30N 51°01' E 001°35'917.9
2017-Aug-18 23:01N 51°06' E 001°24'3 5.2
2017-Aug-18 22:30N 51°07' E 001°20'0 0.0
2017-Aug-18 21:58N 51°07' E 001°20'2 3.5
2017-Aug-18 21:30N 51°07' E 001°23'815.5
2017-Aug-18 21:00N 51°04' E 001°34'815.5
2017-Aug-18 20:30N 50°59' E 001°43'510.3
2017-Aug-18 20:00N 50°58' E 001°52'0 0.2
2017-Aug-18 19:30N 50°58' E 001°52'0 0.0
2017-Aug-18 19:00N 50°58' E 001°52'510.1
2017-Aug-18 18:31N 50°58' E 001°44'917.5
2017-Aug-18 18:00N 51°02' E 001°31'916.9
2017-Aug-18 17:30N 51°07' E 001°20'0 0.4
2017-Aug-18 17:00N 51°07' E 001°20'0 0.2
2017-Aug-18 16:28N 51°07' E 001°20'4 8.4
2017-Aug-18 16:00N 51°07' E 001°26'815.9
2017-Aug-18 15:30N 51°02' E 001°36'817.0
2017-Aug-18 15:00N 50°58' E 001°48'2 4.3
2017-Aug-18 14:30N 50°58' E 001°51'5 4.5
2017-Aug-18 13:31N 50°58' E 001°44'816.0
2017-Aug-18 13:01N 51°02' E 001°33'816.4
2017-Aug-18 12:31N 51°07' E 001°22'2 3.0
2017-Aug-18 11:59N 51°07' E 001°20'0 0.0
2017-Aug-18 11:27N 51°07' E 001°20'0 0.8
2017-Aug-18 10:58N 51°07' E 001°20'510.6
2017-Aug-18 10:30N 51°06' E 001°28'917.1
2017-Aug-18 10:00N 51°01' E 001°38'815.4
2017-Aug-18 09:31N 50°58' E 001°50'1 2.1
2017-Aug-18 09:00N 50°58' E 001°52'0 0.0
2017-Aug-18 08:31N 50°58' E 001°52'510.9
2017-Aug-18 08:01N 50°58' E 001°43'917.1
2017-Aug-18 07:30N 51°02' E 001°31'816.0
2017-Aug-18 07:00N 51°07' E 001°21'1 0.5
2017-Aug-18 05:54N 51°07' E 001°20'2 5.5
2017-Aug-18 05:31N 51°07' E 001°23'714.5
2017-Aug-18 05:01N 51°05' E 001°34'816.3
2017-Aug-18 04:31N 50°59' E 001°43'611.1
2017-Aug-18 04:00N 50°58' E 001°52'0 0.0
2017-Aug-18 03:30N 50°58' E 001°52'0 0.0
2017-Aug-18 03:00N 50°58' E 001°52'0 0.0
2017-Aug-18 02:30N 50°58' E 001°52'0 0.0
2017-Aug-18 02:00N 50°58' E 001°52'0 0.0
2017-Aug-18 01:30N 50°58' E 001°52'0 0.0
2017-Aug-18 01:00N 50°58' E 001°52'0 0.0
2017-Aug-18 00:30N 50°58' E 001°52'1 1.5
2017-Aug-18 00:00N 50°58' E 001°51'816.0
2017-Aug-17 23:30N 50°59' E 001°38'918.0
2017-Aug-17 23:00N 51°05' E 001°26'5 9.7
2017-Aug-17 22:30N 51°07' E 001°20'0 0.0
2017-Aug-17 22:00N 51°07' E 001°20'0 0.6
2017-Aug-17 21:30N 51°07' E 001°20'612.6
2017-Aug-17 21:00N 51°05' E 001°30'917.3
2017-Aug-17 20:30N 51°00' E 001°41'713.3
2017-Aug-17 20:00N 50°58' E 001°51'0 0.5
2017-Aug-17 19:30N 50°58' E 001°52'0 0.0
2017-Aug-17 19:00N 50°58' E 001°52'713.7
2017-Aug-17 18:30N 50°58' E 001°41'816.8
2017-Aug-17 18:00N 51°03' E 001°30'8 6.7
2017-Aug-17 16:52N 51°07' E 001°20'0 0.1
2017-Aug-17 16:30N 51°07' E 001°20'3 5.5
2017-Aug-17 16:00N 51°07' E 001°24'917.3
2017-Aug-17 15:31N 51°02' E 001°36'816.9
2017-Aug-17 15:01N 50°58' E 001°48'2 4.1
2017-Aug-17 14:30N 50°58' E 001°51'0 0.0
2017-Aug-17 14:01N 50°58' E 001°51'2 3.4
2017-Aug-17 13:31N 50°58' E 001°48'815.7
2017-Aug-17 13:01N 51°00' E 001°36'917.6
2017-Aug-17 12:31N 51°06' E 001°25'4 7.5
2017-Aug-17 12:00N 51°07' E 001°20'0 0.0
2017-Aug-17 11:28N 51°07' E 001°20'1 2.8
2017-Aug-17 11:01N 51°07' E 001°22'917.4
2017-Aug-17 10:31N 51°02' E 001°34'917.1
2017-Aug-17 10:00N 50°58' E 001°45'3 7.0
2017-Aug-17 09:30N 50°58' E 001°51'0 0.0
2017-Aug-17 09:00N 50°58' E 001°51'4 8.1
2017-Aug-17 08:30N 50°58' E 001°45'918.2
2017-Aug-17 08:01N 51°02' E 001°32'917.0
2017-Aug-17 07:29N 51°07' E 001°20'0 0.3
2017-Aug-17 07:00N 51°07' E 001°20'0 0.0
2017-Aug-17 06:06N 51°07' E 001°20'0 0.1
2017-Aug-17 05:57N 51°07' E 001°20'3 7.7
2017-Aug-17 05:31N 51°07' E 001°25'917.8
2017-Aug-17 05:01N 51°02' E 001°37'816.1
2017-Aug-17 04:31N 50°58' E 001°49'2 3.4
2017-Aug-17 04:01N 50°58' E 001°52'0 0.0
2017-Aug-17 03:30N 50°58' E 001°52'0 0.0
2017-Aug-17 03:00N 50°58' E 001°52'0 0.0
2017-Aug-17 02:30N 50°58' E 001°52'0 0.0
2017-Aug-17 02:00N 50°58' E 001°52'0 0.0
2017-Aug-17 01:30N 50°58' E 001°52'0 0.0
2017-Aug-17 01:00N 50°58' E 001°52'0 0.0
2017-Aug-17 00:30N 50°58' E 001°52'2 3.9
2017-Aug-17 00:00N 50°58' E 001°49'815.5
2017-Aug-16 23:30N 50°60' E 001°37'918.6
2017-Aug-16 23:00N 51°05' E 001°25'4 6.8
2017-Aug-16 22:30N 51°07' E 001°20'0 0.0
2017-Aug-16 22:00N 51°07' E 001°20'0 1.0
2017-Aug-16 21:30N 51°07' E 001°21'612.6
2017-Aug-16 21:00N 51°06' E 001°31'815.9
2017-Aug-16 20:30N 51°00' E 001°40'714.7
2017-Aug-16 20:01N 50°58' E 001°51'1 1.1
2017-Aug-16 19:30N 50°58' E 001°52'0 0.0
2017-Aug-16 19:00N 50°58' E 001°52'2 4.6
2017-Aug-16 18:30N 50°58' E 001°48'918.7
2017-Aug-16 18:00N 51°01' E 001°34'918.6
2017-Aug-16 17:30N 51°06' E 001°22'2 3.0
2017-Aug-16 17:00N 51°07' E 001°20'0 0.0
2017-Aug-16 16:30N 51°07' E 001°20'2 3.8
2017-Aug-16 16:01N 51°07' E 001°23'816.4
2017-Aug-16 15:30N 51°02' E 001°34'917.9
2017-Aug-16 15:00N 50°58' E 001°46'3 5.9
2017-Aug-16 14:30N 50°58' E 001°51'0 0.0
2017-Aug-16 14:00N 50°58' E 001°51'2 3.6
2017-Aug-16 13:30N 50°58' E 001°48'714.6
2017-Aug-16 13:00N 50°60' E 001°37'816.3
2017-Aug-16 12:30N 51°05' E 001°26'5 9.5
2017-Aug-16 12:00N 51°07' E 001°20'0 0.0
2017-Aug-16 11:29N 51°07' E 001°20'0 0.0
2017-Aug-16 10:58N 51°07' E 001°20'510.9
2017-Aug-16 10:30N 51°07' E 001°28'918.1
2017-Aug-16 10:00N 51°01' E 001°39'816.1
2017-Aug-16 09:30N 50°58' E 001°51'0 0.5
2017-Aug-16 09:00N 50°58' E 001°52'4 4.2
2017-Aug-16 08:00N 50°58' E 001°45'816.7
2017-Aug-16 07:30N 51°01' E 001°33'816.5
2017-Aug-16 07:00N 51°06' E 001°23'2 3.7
2017-Aug-16 06:30N 51°07' E 001°20'0 0.0
2017-Aug-16 06:00N 51°07' E 001°20'2 4.2
2017-Aug-16 05:31N 51°07' E 001°23'917.8
2017-Aug-16 05:01N 51°03' E 001°36'816.9
2017-Aug-16 04:30N 50°58' E 001°47'3 5.8
2017-Aug-16 04:01N 50°58' E 001°52'0 0.0
2017-Aug-16 03:31N 50°58' E 001°52'0 0.0
2017-Aug-16 03:01N 50°58' E 001°52'0 0.0
2017-Aug-16 02:31N 50°58' E 001°52'0 0.0
2017-Aug-16 02:01N 50°58' E 001°52'0 0.0
2017-Aug-16 01:31N 50°58' E 001°52'0 0.0
2017-Aug-16 01:01N 50°58' E 001°52'0 0.0
2017-Aug-16 00:31N 50°58' E 001°52'510.4
2017-Aug-16 00:00N 50°58' E 001°43'917.1
2017-Aug-15 23:30N 51°01' E 001°31'917.5
2017-Aug-15 23:00N 51°07' E 001°21'0 0.9
2017-Aug-15 22:30N 51°07' E 001°20'0 0.0
2017-Aug-15 22:00N 51°07' E 001°20'2 4.5
2017-Aug-15 21:30N 51°07' E 001°24'4 7.5
2017-Aug-15 21:00N 51°05' E 001°28'918.7
2017-Aug-15 20:30N 50°60' E 001°40'714.4
2017-Aug-15 20:01N 50°58' E 001°52'0 0.2
2017-Aug-15 19:30N 50°58' E 001°52'0 0.0
2017-Aug-15 19:00N 50°58' E 001°52'2 3.0
2017-Aug-15 18:31N 50°58' E 001°49'917.3
2017-Aug-15 18:00N 50°60' E 001°36'918.0
2017-Aug-15 17:31N 51°06' E 001°25'3 6.8
2017-Aug-15 17:00N 51°07' E 001°20'0 0.0
2017-Aug-15 16:27N 51°07' E 001°20'1 2.5
2017-Aug-15 16:00N 51°07' E 001°22'713.2
2017-Aug-15 15:30N 51°04' E 001°31'918.3
2017-Aug-15 15:00N 50°59' E 001°43'510.1
2017-Aug-15 14:30N 50°58' E 001°51'0 0.0
2017-Aug-15 14:00N 50°58' E 001°51'0 0.0
2017-Aug-15 13:30N 50°58' E 001°51'510.7
2017-Aug-15 13:00N 50°58' E 001°42'816.4
2017-Aug-15 12:30N 51°01' E 001°31'917.2
2017-Aug-15 12:00N 51°07' E 001°20'1 1.8
2017-Aug-15 11:30N 51°07' E 001°20'0 0.0
2017-Aug-15 11:00N 51°07' E 001°20'2 4.3
2017-Aug-15 10:30N 51°07' E 001°23'816.1
2017-Aug-15 10:00N 51°03' E 001°34'816.6
2017-Aug-15 09:31N 50°58' E 001°45'4 7.1
2017-Aug-15 09:00N 50°58' E 001°51'0 0.0
2017-Aug-15 08:31N 50°58' E 001°51'4 8.1
2017-Aug-15 08:00N 50°58' E 001°45'918.2
2017-Aug-15 07:30N 51°02' E 001°31'917.9
2017-Aug-15 07:00N 51°07' E 001°20'1 0.8
2017-Aug-15 06:20N 51°07' E 001°20'0 0.0
2017-Aug-15 06:00N 51°07' E 001°20'4 7.8
2017-Aug-15 05:31N 51°06' E 001°26'917.7
2017-Aug-15 05:01N 51°02' E 001°38'815.8
2017-Aug-15 04:31N 50°58' E 001°49'1 2.6
2017-Aug-15 03:58N 50°58' E 001°52'0 0.0
2017-Aug-15 03:28N 50°58' E 001°52'0 0.0
2017-Aug-15 02:58N 50°58' E 001°52'0 0.0
2017-Aug-15 02:28N 50°58' E 001°52'0 0.0
2017-Aug-15 01:58N 50°58' E 001°52'0 0.0
2017-Aug-15 01:28N 50°58' E 001°52'0 0.0
2017-Aug-15 00:58N 50°58' E 001°52'0 0.0
2017-Aug-15 00:28N 50°58' E 001°52'0 0.0
2017-Aug-15 00:00N 50°58' E 001°52'0 0.0
2017-Aug-14 23:28N 50°58' E 001°52'0 0.0
2017-Aug-14 22:58N 50°58' E 001°52'0 0.0
2017-Aug-14 22:28N 50°58' E 001°52'0 0.0
2017-Aug-14 21:58N 50°58' E 001°52'0 0.0
2017-Aug-14 21:28N 50°58' E 001°52'0 0.0
2017-Aug-14 20:55N 50°58' E 001°52'0 0.0
2017-Aug-14 20:28N 50°58' E 001°52'0 0.0
2017-Aug-14 19:58N 50°58' E 001°52'0 0.0
2017-Aug-14 19:25N 50°58' E 001°52'0 0.0
2017-Aug-14 18:58N 50°58' E 001°52'1 2.4
2017-Aug-14 18:30N 50°58' E 001°50'815.7
2017-Aug-14 18:01N 50°60' E 001°38'917.2
2017-Aug-14 17:31N 51°05' E 001°27'5 9.8
2017-Aug-14 17:00N 51°07' E 001°20'0 0.0
2017-Aug-14 16:30N 51°07' E 001°20'1 2.3
2017-Aug-14 16:00N 51°07' E 001°22'917.2
2017-Aug-14 15:30N 51°03' E 001°34'917.4
2017-Aug-14 15:01N 50°58' E 001°45'4 7.1
2017-Aug-14 14:30N 50°58' E 001°51'0 0.0
2017-Aug-14 14:00N 50°58' E 001°51'2 4.9
2017-Aug-14 13:30N 50°58' E 001°47'815.5
2017-Aug-14 13:00N 50°59' E 001°35'816.4
2017-Aug-14 12:30N 51°05' E 001°26'4 3.4
2017-Aug-14 11:16N 51°07' E 001°20'0 0.5
2017-Aug-14 11:00N 51°07' E 001°20'917.4
2017-Aug-14 10:31N 51°04' E 001°33'918.3
2017-Aug-14 10:01N 50°58' E 001°44'5 9.2
2017-Aug-14 09:30N 50°58' E 001°52'0 0.0
2017-Aug-14 09:00N 50°58' E 001°52'0 0.0
2017-Aug-14 08:30N 50°58' E 001°52'0 0.2
2017-Aug-14 07:48N 50°58' E 001°52'0 0.0
2017-Aug-14 07:30N 50°58' E 001°52'0 0.0
2017-Aug-14 07:00N 50°58' E 001°52'0 0.0
2017-Aug-14 06:27N 50°58' E 001°52'0 0.0
2017-Aug-14 06:00N 50°58' E 001°52'0 0.0
2017-Aug-14 05:30N 50°58' E 001°52'0 0.0
2017-Aug-14 05:00N 50°58' E 001°52'0 0.0
2017-Aug-14 04:31N 50°58' E 001°52'0 0.0
2017-Aug-14 04:00N 50°58' E 001°52'0 0.0
2017-Aug-14 03:31N 50°58' E 001°52'0 0.0
2017-Aug-14 03:01N 50°58' E 001°52'0 0.0
2017-Aug-14 02:31N 50°58' E 001°52'0 0.0
2017-Aug-14 02:01N 50°58' E 001°52'0 0.0
2017-Aug-14 01:31N 50°58' E 001°52'0 0.0
2017-Aug-14 01:01N 50°58' E 001°52'0 0.0
2017-Aug-14 00:31N 50°58' E 001°52'0 0.0
2017-Aug-14 00:01N 50°58' E 001°52'0 0.0
2017-Aug-13 23:30N 50°58' E 001°52'0 0.0
2017-Aug-13 23:01N 50°58' E 001°52'0 0.0
2017-Aug-13 22:31N 50°58' E 001°52'0 0.0
2017-Aug-13 22:00N 50°58' E 001°52'0 0.0
2017-Aug-13 21:31N 50°58' E 001°52'0 0.0
2017-Aug-13 21:01N 50°58' E 001°52'0 0.0
2017-Aug-13 20:30N 50°58' E 001°52'0 0.0
2017-Aug-13 20:00N 50°58' E 001°52'0 0.0
2017-Aug-13 19:31N 50°58' E 001°52'0 0.2
2017-Aug-13 19:01N 50°58' E 001°52'0 0.6
2017-Aug-13 18:31N 50°58' E 001°51'815.9
2017-Aug-13 18:00N 50°58' E 001°39'917.4
2017-Aug-13 17:30N 51°03' E 001°27'612.2
2017-Aug-13 17:00N 51°07' E 001°20'0 0.0
2017-Aug-13 16:28N 51°07' E 001°20'2 5.2
2017-Aug-13 16:00N 51°07' E 001°24'816.7
2017-Aug-13 15:30N 51°04' E 001°36'816.9
2017-Aug-13 15:00N 50°58' E 001°46'4 7.2
2017-Aug-13 14:30N 50°58' E 001°52'0 0.0
2017-Aug-13 14:00N 50°58' E 001°52'  
Track history (hours):
 
Tides and Currents Weather Stations Pressure Air Temp Water Temp Dewpoint Dewpoint Depression Visibility Wind Speed Wind Dir Waves Ship Positions

European Seaway

Operator: P & O Ferries

Last reported at 2017-Aug-23 13:31 UTC. Time now 2017-Aug-23 13:35 UTC.
Position N 50°58' E 001°47'.

Length 179 m; draft 6.1 m.

Type: Passenger vessel. MMSI: 232001040.

Date/timePositionNaut miles runAvg speedWind from/ knotsBaromVisibWave heightAir tempDewpointWater temp
2017-Aug-23 13:31N 50°58' E 001°47'917.4
2017-Aug-23 13:00N 51°00' E 001°34'815.3
2017-Aug-23 12:31N 51°05' E 001°24'3 5.8
2017-Aug-23 11:55N 51°07' E 001°20'0 0.0
2017-Aug-23 11:16N 51°07' E 001°20'0 0.0
2017-Aug-23 10:56N 51°07' E 001°20'4 9.1
2017-Aug-23 10:30N 51°07' E 001°26'917.7
2017-Aug-23 10:00N 51°02' E 001°38'816.3
2017-Aug-23 09:30N 50°58' E 001°50'1 2.5
2017-Aug-23 09:00N 50°58' E 001°52'0 0.0
2017-Aug-23 08:30N 50°58' E 001°52'510.8
2017-Aug-23 08:00N 50°58' E 001°43'917.1
2017-Aug-23 07:31N 51°02' E 001°31'917.1
2017-Aug-23 07:01N 51°07' E 001°20'0 0.2
2017-Aug-23 05:41N 51°07' E 001°20'0 1.5
2017-Aug-23 05:29N 51°07' E 001°21'612.5
2017-Aug-23 05:00N 51°05' E 001°29'917.2
2017-Aug-23 04:31N 51°00' E 001°41'712.8
2017-Aug-23 03:57N 50°58' E 001°52'0 0.0
2017-Aug-23 03:29N 50°58' E 001°52'0 0.0
2017-Aug-23 03:00N 50°58' E 001°52'0 0.0
2017-Aug-23 02:29N 50°58' E 001°52'0 0.0
2017-Aug-23 01:59N 50°58' E 001°52'0 0.0
2017-Aug-23 01:29N 50°58' E 001°52'0 0.0
2017-Aug-23 01:00N 50°58' E 001°52'0 0.0
2017-Aug-23 00:30N 50°58' E 001°52'0 0.5
2017-Aug-23 00:00N 50°58' E 001°51'714.7
2017-Aug-22 23:30N 50°59' E 001°40'815.1
2017-Aug-22 23:00N 51°03' E 001°29'814.7
2017-Aug-22 22:30N 51°07' E 001°20'0 0.0
2017-Aug-22 21:50N 51°07' E 001°20'0 0.0
2017-Aug-22 21:30N 51°07' E 001°20'5 9.3
2017-Aug-22 21:00N 51°06' E 001°27'918.0
2017-Aug-22 20:30N 51°01' E 001°39'816.5
2017-Aug-22 20:00N 50°58' E 001°51'0 0.9
2017-Aug-22 19:30N 50°58' E 001°52'0 0.0
2017-Aug-22 19:00N 50°58' E 001°52'2 3.6
2017-Aug-22 18:30N 50°58' E 001°49'815.6
2017-Aug-22 18:00N 50°59' E 001°36'917.3
2017-Aug-22 17:31N 51°03' E 001°25'510.1
2017-Aug-22 17:00N 51°07' E 001°20'0 0.0
2017-Aug-22 16:30N 51°07' E 001°20'2 4.6
2017-Aug-22 16:01N 51°07' E 001°24'816.3
2017-Aug-22 15:31N 51°04' E 001°36'816.3
2017-Aug-22 15:01N 50°58' E 001°45'4 7.8
2017-Aug-22 14:30N 50°58' E 001°51'0 0.0
2017-Aug-22 14:00N 50°58' E 001°51'0 0.0
2017-Aug-22 13:30N 50°58' E 001°51'510.1
2017-Aug-22 13:00N 50°58' E 001°43'919.0
2017-Aug-22 12:31N 51°03' E 001°30'813.8
2017-Aug-22 11:57N 51°07' E 001°20'0 0.0
2017-Aug-22 11:29N 51°07' E 001°20'0 0.0
2017-Aug-22 10:53N 51°07' E 001°20'410.5
2017-Aug-22 10:30N 51°07' E 001°26'918.2
2017-Aug-22 10:00N 51°01' E 001°38'816.3
2017-Aug-22 09:30N 50°58' E 001°50'1 2.1
2017-Aug-22 09:00N 50°58' E 001°52'0 0.0
2017-Aug-22 08:30N 50°58' E 001°52'3 6.5
2017-Aug-22 08:00N 50°58' E 001°47'815.1
2017-Aug-22 07:31N 51°00' E 001°35'917.6
2017-Aug-22 07:01N 51°05' E 001°24'3 5.6
2017-Aug-22 06:28N 51°07' E 001°20'0 0.0
2017-Aug-22 06:00N 51°07' E 001°20'1 2.7
2017-Aug-22 05:31N 51°07' E 001°22'816.2
2017-Aug-22 05:00N 51°03' E 001°33'918.5
2017-Aug-22 04:30N 50°58' E 001°46'4 7.3
2017-Aug-22 04:00N 50°58' E 001°51'0 0.0
2017-Aug-22 03:30N 50°58' E 001°51'2 4.4
2017-Aug-22 03:00N 50°58' E 001°48'714.4
2017-Aug-22 02:30N 50°59' E 001°37'918.2
2017-Aug-22 02:00N 51°05' E 001°26'4 8.4
2017-Aug-22 01:31N 51°07' E 001°20'0 0.0
2017-Aug-22 01:00N 51°07' E 001°20'1 2.5
2017-Aug-22 00:30N 51°07' E 001°22'713.8
2017-Aug-22 00:01N 51°08' E 001°33'5 9.8
2017-Aug-21 23:30N 51°04' E 001°37'612.7
2017-Aug-21 23:01N 50°59' E 001°43'510.7
2017-Aug-21 22:31N 50°58' E 001°51'0 0.1
2017-Aug-21 22:01N 50°58' E 001°51'0 0.0
2017-Aug-21 21:30N 50°58' E 001°51'1 1.4
2017-Aug-21 21:01N 50°58' E 001°50'917.1
2017-Aug-21 20:30N 50°59' E 001°37'612.9
2017-Aug-21 20:00N 51°03' E 001°30'714.0
2017-Aug-21 19:30N 51°07' E 001°20'1 1.5
2017-Aug-21 19:00N 51°07' E 001°20'0 0.0
2017-Aug-21 18:30N 51°07' E 001°20'0 0.0
2017-Aug-21 18:00N 51°07' E 001°20'0 0.0
2017-Aug-21 17:30N 51°07' E 001°20'0 0.0
2017-Aug-21 17:00N 51°07' E 001°20'0 0.0
2017-Aug-21 16:30N 51°07' E 001°20'0 0.7
2017-Aug-21 16:00N 51°07' E 001°21'815.9
2017-Aug-21 15:31N 51°04' E 001°32'917.8
2017-Aug-21 15:00N 50°59' E 001°43'5 9.7
2017-Aug-21 14:30N 50°58' E 001°51'0 0.0
2017-Aug-21 14:00N 50°58' E 001°51'0 0.0
2017-Aug-21 13:31N 50°58' E 001°51'612.7
2017-Aug-21 13:01N 50°58' E 001°41'918.7
2017-Aug-21 12:30N 51°02' E 001°28'7 4.7
2017-Aug-21 11:03N 51°07' E 001°20'0 0.5
2017-Aug-21 11:00N 51°07' E 001°20'4 8.0
2017-Aug-21 10:31N 51°06' E 001°26'918.4
2017-Aug-21 10:01N 51°01' E 001°39'815.5
2017-Aug-21 09:30N 50°58' E 001°50'1 1.5
2017-Aug-21 09:00N 50°58' E 001°51'0 0.0
2017-Aug-21 08:30N 50°58' E 001°51'0 0.0
2017-Aug-21 08:00N 50°58' E 001°51'0 0.0
2017-Aug-21 07:30N 50°58' E 001°51'0 0.0
2017-Aug-21 07:00N 50°58' E 001°51'0 0.0
2017-Aug-21 06:30N 50°58' E 001°51'0 0.0
2017-Aug-21 06:00N 50°58' E 001°51'0 0.0
2017-Aug-21 05:30N 50°58' E 001°51'0 0.0
2017-Aug-21 04:58N 50°58' E 001°51'0 0.0
2017-Aug-21 04:28N 50°58' E 001°51'0 0.0
2017-Aug-21 03:55N 50°58' E 001°51'0 0.0
2017-Aug-21 03:25N 50°58' E 001°51'0 0.0
2017-Aug-21 02:58N 50°58' E 001°51'0 0.0
2017-Aug-21 02:28N 50°58' E 001°51'0 0.0
2017-Aug-21 02:01N 50°58' E 001°51'0 0.0
2017-Aug-21 01:31N 50°58' E 001°51'0 0.0
2017-Aug-21 01:01N 50°58' E 001°51'0 0.0
2017-Aug-21 00:31N 50°58' E 001°51'0 0.0
2017-Aug-21 00:00N 50°58' E 001°51'0 0.0
2017-Aug-20 23:30N 50°58' E 001°51'0 0.0
2017-Aug-20 23:00N 50°58' E 001°51'0 0.0
2017-Aug-20 22:30N 50°58' E 001°51'0 0.0
2017-Aug-20 22:00N 50°58' E 001°51'0 0.0
2017-Aug-20 21:30N 50°58' E 001°51'0 0.0
2017-Aug-20 21:00N 50°58' E 001°51'0 0.0
2017-Aug-20 20:30N 50°58' E 001°51'0 0.0
2017-Aug-20 20:01N 50°58' E 001°51'0 0.0
2017-Aug-20 19:30N 50°58' E 001°51'0 0.0
2017-Aug-20 19:00N 50°58' E 001°51'2 3.7
2017-Aug-20 18:30N 50°58' E 001°48'816.1
2017-Aug-20 18:00N 50°60' E 001°35'917.5
2017-Aug-20 17:31N 51°05' E 001°24'4 7.4
2017-Aug-20 17:00N 51°07' E 001°20'0 0.0
2017-Aug-20 16:29N 51°07' E 001°20'0 0.3
2017-Aug-20 16:00N 51°07' E 001°20'815.4
2017-Aug-20 15:30N 51°04' E 001°31'917.8
2017-Aug-20 15:01N 50°59' E 001°43'611.3
2017-Aug-20 14:31N 50°58' E 001°52'0 0.0
2017-Aug-20 14:00N 50°58' E 001°52'1 1.1
2017-Aug-20 13:30N 50°58' E 001°51'816.7
2017-Aug-20 13:00N 50°60' E 001°38'918.6
2017-Aug-20 12:31N 51°05' E 001°26'4 4.4
2017-Aug-20 11:34N 51°07' E 001°20'0 0.0
2017-Aug-20 11:16N 51°07' E 001°20'0 0.1
2017-Aug-20 11:00N 51°07' E 001°20'510.9
2017-Aug-20 10:30N 51°05' E 001°28'917.2
2017-Aug-20 10:00N 51°00' E 001°40'714.6
2017-Aug-20 09:31N 50°58' E 001°51'1 1.4
2017-Aug-20 09:00N 50°58' E 001°52'0 0.3
2017-Aug-20 08:31N 50°58' E 001°51'815.4
2017-Aug-20 08:01N 50°59' E 001°39'918.3
2017-Aug-20 07:31N 51°04' E 001°27'610.9
2017-Aug-20 06:58N 51°07' E 001°20'0 0.0
2017-Aug-20 06:15N 51°07' E 001°20'0 0.0
2017-Aug-20 05:58N 51°07' E 001°20'2 4.6
2017-Aug-20 05:31N 51°07' E 001°23'917.5
2017-Aug-20 05:00N 51°04' E 001°36'917.3
2017-Aug-20 04:30N 50°58' E 001°47'3 5.3
2017-Aug-20 04:00N 50°58' E 001°51'0 0.1
2017-Aug-20 03:30N 50°58' E 001°51'0 0.9
2017-Aug-20 02:58N 50°58' E 001°52'0 0.0
2017-Aug-20 02:22N 50°58' E 001°52'0 0.0
2017-Aug-20 01:58N 50°58' E 001°52'0 0.0
2017-Aug-20 01:25N 50°58' E 001°52'0 0.0
2017-Aug-20 01:00N 50°58' E 001°52'0 0.0
2017-Aug-20 00:30N 50°58' E 001°52'0 0.0
2017-Aug-20 00:00N 50°58' E 001°52'0 0.0
2017-Aug-19 23:30N 50°58' E 001°52'0 0.0
2017-Aug-19 23:00N 50°58' E 001°52'0 0.0
2017-Aug-19 22:30N 50°58' E 001°52'0 0.0
2017-Aug-19 22:00N 50°58' E 001°52'0 0.0
2017-Aug-19 21:30N 50°58' E 001°52'0 0.0
2017-Aug-19 21:00N 50°58' E 001°52'0 0.0
2017-Aug-19 20:30N 50°58' E 001°52'0 0.0
2017-Aug-19 20:00N 50°58' E 001°52'0 0.3
2017-Aug-19 19:30N 50°58' E 001°52'0 0.0
2017-Aug-19 19:00N 50°58' E 001°52'2 3.7
2017-Aug-19 18:31N 50°58' E 001°49'816.6
2017-Aug-19 18:01N 50°60' E 001°36'917.7
2017-Aug-19 17:30N 51°05' E 001°25'4 7.0
2017-Aug-19 17:00N 51°07' E 001°20'0 0.0
2017-Aug-19 16:30N 51°07' E 001°20'3 5.8
2017-Aug-19 16:01N 51°07' E 001°24'917.5
2017-Aug-19 15:30N 51°02' E 001°36'917.3
2017-Aug-19 15:01N 50°58' E 001°48'2 1.6
2017-Aug-19 14:00N 50°58' E 001°51'0 0.7
2017-Aug-19 13:30N 50°58' E 001°51'816.0
2017-Aug-19 13:00N 50°60' E 001°38'918.2
2017-Aug-19 12:30N 51°05' E 001°26'5 9.0
2017-Aug-19 12:00N 51°07' E 001°20'0 0.0
2017-Aug-19 11:25N 51°07' E 001°20'1 2.1
2017-Aug-19 11:00N 51°07' E 001°21'816.5
2017-Aug-19 10:30N 51°03' E 001°33'816.7
2017-Aug-19 10:01N 50°59' E 001°44'5 9.9
2017-Aug-19 09:30N 50°58' E 001°52'0 0.0
2017-Aug-19 09:00N 50°58' E 001°52'1 2.6
2017-Aug-19 08:31N 50°58' E 001°50'918.3
2017-Aug-19 08:01N 51°00' E 001°35'918.0
2017-Aug-19 07:31N 51°06' E 001°24'3 5.6
2017-Aug-19 06:59N 51°07' E 001°20'0 0.0
2017-Aug-19 06:26N 51°07' E 001°20'0 0.2
2017-Aug-19 06:00N 51°07' E 001°20'510.3
2017-Aug-19 05:30N 51°05' E 001°28'917.2
2017-Aug-19 05:00N 51°00' E 001°39'815.5
2017-Aug-19 04:31N 50°58' E 001°51'1 1.3
2017-Aug-19 04:01N 50°58' E 001°52'0 0.0
2017-Aug-19 03:30N 50°58' E 001°52'0 0.0
2017-Aug-19 03:00N 50°58' E 001°52'0 0.0
2017-Aug-19 02:30N 50°58' E 001°52'0 0.0
2017-Aug-19 02:01N 50°58' E 001°52'0 0.0
2017-Aug-19 01:31N 50°58' E 001°52'0 0.0
2017-Aug-19 01:01N 50°58' E 001°52'0 0.0
2017-Aug-19 00:30N 50°58' E 001°52'3 6.3
2017-Aug-19 00:01N 50°58' E 001°47'815.7
2017-Aug-18 23:30N 51°01' E 001°35'917.9
2017-Aug-18 23:01N 51°06' E 001°24'3 5.2
2017-Aug-18 22:30N 51°07' E 001°20'0 0.0
2017-Aug-18 21:58N 51°07' E 001°20'2 3.5
2017-Aug-18 21:30N 51°07' E 001°23'815.5
2017-Aug-18 21:00N 51°04' E 001°34'815.5
2017-Aug-18 20:30N 50°59' E 001°43'510.3
2017-Aug-18 20:00N 50°58' E 001°52'0 0.2
2017-Aug-18 19:30N 50°58' E 001°52'0 0.0
2017-Aug-18 19:00N 50°58' E 001°52'510.1
2017-Aug-18 18:31N 50°58' E 001°44'917.5
2017-Aug-18 18:00N 51°02' E 001°31'916.9
2017-Aug-18 17:30N 51°07' E 001°20'0 0.4
2017-Aug-18 17:00N 51°07' E 001°20'0 0.2
2017-Aug-18 16:28N 51°07' E 001°20'4 8.4
2017-Aug-18 16:00N 51°07' E 001°26'815.9
2017-Aug-18 15:30N 51°02' E 001°36'817.0
2017-Aug-18 15:00N 50°58' E 001°48'2 4.3
2017-Aug-18 14:30N 50°58' E 001°51'5 4.5
2017-Aug-18 13:31N 50°58' E 001°44'816.0
2017-Aug-18 13:01N 51°02' E 001°33'816.4
2017-Aug-18 12:31N 51°07' E 001°22'2 3.0
2017-Aug-18 11:59N 51°07' E 001°20'0 0.0
2017-Aug-18 11:27N 51°07' E 001°20'0 0.8
2017-Aug-18 10:58N 51°07' E 001°20'510.6
2017-Aug-18 10:30N 51°06' E 001°28'917.1
2017-Aug-18 10:00N 51°01' E 001°38'815.4
2017-Aug-18 09:31N 50°58' E 001°50'1 2.1
2017-Aug-18 09:00N 50°58' E 001°52'0 0.0
2017-Aug-18 08:31N 50°58' E 001°52'510.9
2017-Aug-18 08:01N 50°58' E 001°43'917.1
2017-Aug-18 07:30N 51°02' E 001°31'816.0
2017-Aug-18 07:00N 51°07' E 001°21'1 0.5
2017-Aug-18 05:54N 51°07' E 001°20'2 5.5
2017-Aug-18 05:31N 51°07' E 001°23'714.5
2017-Aug-18 05:01N 51°05' E 001°34'816.3
2017-Aug-18 04:31N 50°59' E 001°43'611.1
2017-Aug-18 04:00N 50°58' E 001°52'0 0.0
2017-Aug-18 03:30N 50°58' E 001°52'0 0.0
2017-Aug-18 03:00N 50°58' E 001°52'0 0.0
2017-Aug-18 02:30N 50°58' E 001°52'0 0.0
2017-Aug-18 02:00N 50°58' E 001°52'0 0.0
2017-Aug-18 01:30N 50°58' E 001°52'0 0.0
2017-Aug-18 01:00N 50°58' E 001°52'0 0.0
2017-Aug-18 00:30N 50°58' E 001°52'1 1.5
2017-Aug-18 00:00N 50°58' E 001°51'816.0
2017-Aug-17 23:30N 50°59' E 001°38'918.0
2017-Aug-17 23:00N 51°05' E 001°26'5 9.7
2017-Aug-17 22:30N 51°07' E 001°20'0 0.0
2017-Aug-17 22:00N 51°07' E 001°20'0 0.6
2017-Aug-17 21:30N 51°07' E 001°20'612.6
2017-Aug-17 21:00N 51°05' E 001°30'917.3
2017-Aug-17 20:30N 51°00' E 001°41'713.3
2017-Aug-17 20:00N 50°58' E 001°51'0 0.5
2017-Aug-17 19:30N 50°58' E 001°52'0 0.0
2017-Aug-17 19:00N 50°58' E 001°52'713.7
2017-Aug-17 18:30N 50°58' E 001°41'816.8
2017-Aug-17 18:00N 51°03' E 001°30'8 6.7
2017-Aug-17 16:52N 51°07' E 001°20'0 0.1
2017-Aug-17 16:30N 51°07' E 001°20'3 5.5
2017-Aug-17 16:00N 51°07' E 001°24'917.3
2017-Aug-17 15:31N 51°02' E 001°36'816.9
2017-Aug-17 15:01N 50°58' E 001°48'2 4.1
2017-Aug-17 14:30N 50°58' E 001°51'0 0.0
2017-Aug-17 14:01N 50°58' E 001°51'2 3.4
2017-Aug-17 13:31N 50°58' E 001°48'815.7
2017-Aug-17 13:01N 51°00' E 001°36'917.6
2017-Aug-17 12:31N 51°06' E 001°25'4 7.5
2017-Aug-17 12:00N 51°07' E 001°20'0 0.0
2017-Aug-17 11:28N 51°07' E 001°20'1 2.8
2017-Aug-17 11:01N 51°07' E 001°22'917.4
2017-Aug-17 10:31N 51°02' E 001°34'917.1
2017-Aug-17 10:00N 50°58' E 001°45'3 7.0
2017-Aug-17 09:30N 50°58' E 001°51'0 0.0
2017-Aug-17 09:00N 50°58' E 001°51'4 8.1
2017-Aug-17 08:30N 50°58' E 001°45'918.2
2017-Aug-17 08:01N 51°02' E 001°32'917.0
2017-Aug-17 07:29N 51°07' E 001°20'0 0.3
2017-Aug-17 07:00N 51°07' E 001°20'0 0.0
2017-Aug-17 06:06N 51°07' E 001°20'0 0.1
2017-Aug-17 05:57N 51°07' E 001°20'3 7.7
2017-Aug-17 05:31N 51°07' E 001°25'917.8
2017-Aug-17 05:01N 51°02' E 001°37'816.1
2017-Aug-17 04:31N 50°58' E 001°49'2 3.4
2017-Aug-17 04:01N 50°58' E 001°52'0 0.0
2017-Aug-17 03:30N 50°58' E 001°52'0 0.0
2017-Aug-17 03:00N 50°58' E 001°52'0 0.0
2017-Aug-17 02:30N 50°58' E 001°52'0 0.0
2017-Aug-17 02:00N 50°58' E 001°52'0 0.0
2017-Aug-17 01:30N 50°58' E 001°52'0 0.0
2017-Aug-17 01:00N 50°58' E 001°52'0 0.0
2017-Aug-17 00:30N 50°58' E 001°52'2 3.9
2017-Aug-17 00:00N 50°58' E 001°49'815.5
2017-Aug-16 23:30N 50°60' E 001°37'918.6
2017-Aug-16 23:00N 51°05' E 001°25'4 6.8
2017-Aug-16 22:30N 51°07' E 001°20'0 0.0
2017-Aug-16 22:00N 51°07' E 001°20'0 1.0
2017-Aug-16 21:30N 51°07' E 001°21'612.6
2017-Aug-16 21:00N 51°06' E 001°31'815.9
2017-Aug-16 20:30N 51°00' E 001°40'714.7
2017-Aug-16 20:01N 50°58' E 001°51'1 1.1
2017-Aug-16 19:30N 50°58' E 001°52'0 0.0
2017-Aug-16 19:00N 50°58' E 001°52'2 4.6
2017-Aug-16 18:30N 50°58' E 001°48'918.7
2017-Aug-16 18:00N 51°01' E 001°34'918.6
2017-Aug-16 17:30N 51°06' E 001°22'2 3.0
2017-Aug-16 17:00N 51°07' E 001°20'0 0.0
2017-Aug-16 16:30N 51°07' E 001°20'2 3.8
2017-Aug-16 16:01N 51°07' E 001°23'816.4
2017-Aug-16 15:30N 51°02' E 001°34'917.9
2017-Aug-16 15:00N 50°58' E 001°46'3 5.9
2017-Aug-16 14:30N 50°58' E 001°51'0 0.0
2017-Aug-16 14:00N 50°58' E 001°51'2 3.6
2017-Aug-16 13:30N 50°58' E 001°48'714.6
2017-Aug-16 13:00N 50°60' E 001°37'816.3
2017-Aug-16 12:30N 51°05' E 001°26'5 9.5
2017-Aug-16 12:00N 51°07' E 001°20'0 0.0
2017-Aug-16 11:29N 51°07' E 001°20'0 0.0
2017-Aug-16 10:58N 51°07' E 001°20'510.9
2017-Aug-16 10:30N 51°07' E 001°28'918.1
2017-Aug-16 10:00N 51°01' E 001°39'816.1
2017-Aug-16 09:30N 50°58' E 001°51'0 0.5
2017-Aug-16 09:00N 50°58' E 001°52'4 4.2
2017-Aug-16 08:00N 50°58' E 001°45'816.7
2017-Aug-16 07:30N 51°01' E 001°33'816.5
2017-Aug-16 07:00N 51°06' E 001°23'2 3.7
2017-Aug-16 06:30N 51°07' E 001°20'0 0.0
2017-Aug-16 06:00N 51°07' E 001°20'2 4.2
2017-Aug-16 05:31N 51°07' E 001°23'917.8
2017-Aug-16 05:01N 51°03' E 001°36'816.9
2017-Aug-16 04:30N 50°58' E 001°47'3 5.8
2017-Aug-16 04:01N 50°58' E 001°52'0 0.0
2017-Aug-16 03:31N 50°58' E 001°52'0 0.0
2017-Aug-16 03:01N 50°58' E 001°52'0 0.0
2017-Aug-16 02:31N 50°58' E 001°52'0 0.0
2017-Aug-16 02:01N 50°58' E 001°52'0 0.0
2017-Aug-16 01:31N 50°58' E 001°52'0 0.0
2017-Aug-16 01:01N 50°58' E 001°52'0 0.0
2017-Aug-16 00:31N 50°58' E 001°52'510.4
2017-Aug-16 00:00N 50°58' E 001°43'917.1
2017-Aug-15 23:30N 51°01' E 001°31'917.5
2017-Aug-15 23:00N 51°07' E 001°21'0 0.9
2017-Aug-15 22:30N 51°07' E 001°20'0 0.0
2017-Aug-15 22:00N 51°07' E 001°20'2 4.5
2017-Aug-15 21:30N 51°07' E 001°24'4 7.5
2017-Aug-15 21:00N 51°05' E 001°28'918.7
2017-Aug-15 20:30N 50°60' E 001°40'714.4
2017-Aug-15 20:01N 50°58' E 001°52'0 0.2
2017-Aug-15 19:30N 50°58' E 001°52'0 0.0
2017-Aug-15 19:00N 50°58' E 001°52'2 3.0
2017-Aug-15 18:31N 50°58' E 001°49'917.3
2017-Aug-15 18:00N 50°60' E 001°36'918.0
2017-Aug-15 17:31N 51°06' E 001°25'3 6.8
2017-Aug-15 17:00N 51°07' E 001°20'0 0.0
2017-Aug-15 16:27N 51°07' E 001°20'1 2.5
2017-Aug-15 16:00N 51°07' E 001°22'713.2
2017-Aug-15 15:30N 51°04' E 001°31'918.3
2017-Aug-15 15:00N 50°59' E 001°43'510.1
2017-Aug-15 14:30N 50°58' E 001°51'0 0.0
2017-Aug-15 14:00N 50°58' E 001°51'0 0.0
2017-Aug-15 13:30N 50°58' E 001°51'510.7
2017-Aug-15 13:00N 50°58' E 001°42'816.4
2017-Aug-15 12:30N 51°01' E 001°31'917.2
2017-Aug-15 12:00N 51°07' E 001°20'1 1.8
2017-Aug-15 11:30N 51°07' E 001°20'0 0.0
2017-Aug-15 11:00N 51°07' E 001°20'2 4.3
2017-Aug-15 10:30N 51°07' E 001°23'816.1
2017-Aug-15 10:00N 51°03' E 001°34'816.6
2017-Aug-15 09:31N 50°58' E 001°45'4 7.1
2017-Aug-15 09:00N 50°58' E 001°51'0 0.0
2017-Aug-15 08:31N 50°58' E 001°51'4 8.1
2017-Aug-15 08:00N 50°58' E 001°45'918.2
2017-Aug-15 07:30N 51°02' E 001°31'917.9
2017-Aug-15 07:00N 51°07' E 001°20'1 0.8
2017-Aug-15 06:20N 51°07' E 001°20'0 0.0
2017-Aug-15 06:00N 51°07' E 001°20'4 7.8
2017-Aug-15 05:31N 51°06' E 001°26'917.7
2017-Aug-15 05:01N 51°02' E 001°38'815.8
2017-Aug-15 04:31N 50°58' E 001°49'1 2.6
2017-Aug-15 03:58N 50°58' E 001°52'0 0.0
2017-Aug-15 03:28N 50°58' E 001°52'0 0.0
2017-Aug-15 02:58N 50°58' E 001°52'0 0.0
2017-Aug-15 02:28N 50°58' E 001°52'0 0.0
2017-Aug-15 01:58N 50°58' E 001°52'0 0.0
2017-Aug-15 01:28N 50°58' E 001°52'0 0.0
2017-Aug-15 00:58N 50°58' E 001°52'0 0.0
2017-Aug-15 00:28N 50°58' E 001°52'0 0.0
2017-Aug-15 00:00N 50°58' E 001°52'0 0.0
2017-Aug-14 23:28N 50°58' E 001°52'0 0.0
2017-Aug-14 22:58N 50°58' E 001°52'0 0.0
2017-Aug-14 22:28N 50°58' E 001°52'0 0.0
2017-Aug-14 21:58N 50°58' E 001°52'0 0.0
2017-Aug-14 21:28N 50°58' E 001°52'0 0.0
2017-Aug-14 20:55N 50°58' E 001°52'0 0.0
2017-Aug-14 20:28N 50°58' E 001°52'0 0.0
2017-Aug-14 19:58N 50°58' E 001°52'0 0.0
2017-Aug-14 19:25N 50°58' E 001°52'0 0.0
2017-Aug-14 18:58N 50°58' E 001°52'1 2.4
2017-Aug-14 18:30N 50°58' E 001°50'815.7
2017-Aug-14 18:01N 50°60' E 001°38'917.2
2017-Aug-14 17:31N 51°05' E 001°27'5 9.8
2017-Aug-14 17:00N 51°07' E 001°20'0 0.0
2017-Aug-14 16:30N 51°07' E 001°20'1 2.3
2017-Aug-14 16:00N 51°07' E 001°22'917.2
2017-Aug-14 15:30N 51°03' E 001°34'917.4
2017-Aug-14 15:01N 50°58' E 001°45'4 7.1
2017-Aug-14 14:30N 50°58' E 001°51'0 0.0
2017-Aug-14 14:00N 50°58' E 001°51'2 4.9
2017-Aug-14 13:30N 50°58' E 001°47'815.5
2017-Aug-14 13:00N 50°59' E 001°35'816.4
2017-Aug-14 12:30N 51°05' E 001°26'4 3.4
2017-Aug-14 11:16N 51°07' E 001°20'0 0.5
2017-Aug-14 11:00N 51°07' E 001°20'917.4
2017-Aug-14 10:31N 51°04' E 001°33'918.3
2017-Aug-14 10:01N 50°58' E 001°44'5 9.2
2017-Aug-14 09:30N 50°58' E 001°52'0 0.0
2017-Aug-14 09:00N 50°58' E 001°52'0 0.0
2017-Aug-14 08:30N 50°58' E 001°52'0 0.2
2017-Aug-14 07:48N 50°58' E 001°52'0 0.0
2017-Aug-14 07:30N 50°58' E 001°52'0 0.0
2017-Aug-14 07:00N 50°58' E 001°52'0 0.0
2017-Aug-14 06:27N 50°58' E 001°52'0 0.0
2017-Aug-14 06:00N 50°58' E 001°52'0 0.0
2017-Aug-14 05:30N 50°58' E 001°52'0 0.0
2017-Aug-14 05:00N 50°58' E 001°52'0 0.0
2017-Aug-14 04:31N 50°58' E 001°52'0 0.0
2017-Aug-14 04:00N 50°58' E 001°52'0 0.0
2017-Aug-14 03:31N 50°58' E 001°52'0 0.0
2017-Aug-14 03:01N 50°58' E 001°52'0 0.0
2017-Aug-14 02:31N 50°58' E 001°52'0 0.0
2017-Aug-14 02:01N 50°58' E 001°52'0 0.0
2017-Aug-14 01:31N 50°58' E 001°52'0 0.0
2017-Aug-14 01:01N 50°58' E 001°52'0 0.0
2017-Aug-14 00:31N 50°58' E 001°52'0 0.0
2017-Aug-14 00:01N 50°58' E 001°52'0 0.0
2017-Aug-13 23:30N 50°58' E 001°52'0 0.0
2017-Aug-13 23:01N 50°58' E 001°52'0 0.0
2017-Aug-13 22:31N 50°58' E 001°52'0 0.0
2017-Aug-13 22:00N 50°58' E 001°52'0 0.0
2017-Aug-13 21:31N 50°58' E 001°52'0 0.0
2017-Aug-13 21:01N 50°58' E 001°52'0 0.0
2017-Aug-13 20:30N 50°58' E 001°52'0 0.0
2017-Aug-13 20:00N 50°58' E 001°52'0 0.0
2017-Aug-13 19:31N 50°58' E 001°52'0 0.2
2017-Aug-13 19:01N 50°58' E 001°52'0 0.6
2017-Aug-13 18:31N 50°58' E 001°51'815.9
2017-Aug-13 18:00N 50°58' E 001°39'917.4
2017-Aug-13 17:30N 51°03' E 001°27'612.2
2017-Aug-13 17:00N 51°07' E 001°20'0 0.0
2017-Aug-13 16:28N 51°07' E 001°20'2 5.2
2017-Aug-13 16:00N 51°07' E 001°24'816.7
2017-Aug-13 15:30N 51°04' E 001°36'816.9
2017-Aug-13 15:00N 50°58' E 001°46'4 7.2
2017-Aug-13 14:30N 50°58' E 001°52'0 0.0
2017-Aug-13 14:00N 50°58' E 001°52'  

Dump ship's entire track history